sensor_id;sensor_type;location;lat;lon;timestamp;P1;durP1;ratioP1;P2;durP2;ratioP2
17207;SDS011;8720;48.488;9.202;2022-07-29T00:01:19;6.00;;;5.50;;
17207;SDS011;8720;48.488;9.202;2022-07-29T00:03:46;5.60;;;5.20;;
17207;SDS011;8720;48.488;9.202;2022-07-29T00:06:15;6.77;;;5.43;;
17207;SDS011;8720;48.488;9.202;2022-07-29T00:08:43;5.73;;;5.23;;
17207;SDS011;8720;48.488;9.202;2022-07-29T00:11:10;6.60;;;6.00;;
17207;SDS011;8720;48.488;9.202;2022-07-29T00:13:37;5.83;;;5.43;;
17207;SDS011;8720;48.488;9.202;2022-07-29T00:16:05;6.20;;;5.80;;
17207;SDS011;8720;48.488;9.202;2022-07-29T00:18:32;5.33;;;4.93;;
17207;SDS011;8720;48.488;9.202;2022-07-29T00:20:59;6.27;;;5.77;;
17207;SDS011;8720;48.488;9.202;2022-07-29T00:23:28;6.10;;;5.60;;
17207;SDS011;8720;48.488;9.202;2022-07-29T00:25:55;5.93;;;5.43;;
17207;SDS011;8720;48.488;9.202;2022-07-29T00:28:22;6.43;;;5.70;;
17207;SDS011;8720;48.488;9.202;2022-07-29T00:30:50;5.83;;;5.27;;
17207;SDS011;8720;48.488;9.202;2022-07-29T00:33:17;6.40;;;5.80;;
17207;SDS011;8720;48.488;9.202;2022-07-29T00:35:44;5.60;;;5.10;;
17207;SDS011;8720;48.488;9.202;2022-07-29T00:38:11;5.83;;;5.33;;
17207;SDS011;8720;48.488;9.202;2022-07-29T00:40:41;6.10;;;5.60;;
17207;SDS011;8720;48.488;9.202;2022-07-29T00:43:09;5.03;;;4.63;;
17207;SDS011;8720;48.488;9.202;2022-07-29T00:45:36;5.70;;;4.80;;
17207;SDS011;8720;48.488;9.202;2022-07-29T00:48:04;5.27;;;4.80;;
17207;SDS011;8720;48.488;9.202;2022-07-29T00:50:34;5.13;;;4.30;;
17207;SDS011;8720;48.488;9.202;2022-07-29T00:53:02;4.90;;;4.57;;
17207;SDS011;8720;48.488;9.202;2022-07-29T00:55:32;5.63;;;5.23;;
17207;SDS011;8720;48.488;9.202;2022-07-29T00:58:02;5.83;;;5.23;;
17207;SDS011;8720;48.488;9.202;2022-07-29T01:00:30;5.30;;;4.80;;
17207;SDS011;8720;48.488;9.202;2022-07-29T01:02:58;5.27;;;4.87;;
17207;SDS011;8720;48.488;9.202;2022-07-29T01:05:26;5.17;;;4.80;;
17207;SDS011;8720;48.488;9.202;2022-07-29T01:07:55;4.67;;;4.30;;
17207;SDS011;8720;48.488;9.202;2022-07-29T01:10:24;6.00;;;5.40;;
17207;SDS011;8720;48.488;9.202;2022-07-29T01:12:53;6.00;;;5.50;;
17207;SDS011;8720;48.488;9.202;2022-07-29T01:15:26;5.30;;;4.80;;
17207;SDS011;8720;48.488;9.202;2022-07-29T01:17:57;5.77;;;5.27;;
17207;SDS011;8720;48.488;9.202;2022-07-29T01:20:37;5.10;;;4.70;;
17207;SDS011;8720;48.488;9.202;2022-07-29T01:23:37;6.40;;;5.67;;
17207;SDS011;8720;48.488;9.202;2022-07-29T01:26:34;5.30;;;4.90;;
17207;SDS011;8720;48.488;9.202;2022-07-29T01:29:14;5.40;;;5.00;;
17207;SDS011;8720;48.488;9.202;2022-07-29T01:31:50;6.50;;;4.80;;
17207;SDS011;8720;48.488;9.202;2022-07-29T01:34:35;4.73;;;4.33;;
17207;SDS011;8720;48.488;9.202;2022-07-29T01:37:18;5.30;;;4.80;;
17207;SDS011;8720;48.488;9.202;2022-07-29T01:39:52;6.10;;;5.53;;
17207;SDS011;8720;48.488;9.202;2022-07-29T01:42:25;5.80;;;5.40;;
17207;SDS011;8720;48.488;9.202;2022-07-29T01:45:00;5.43;;;4.97;;
17207;SDS011;8720;48.488;9.202;2022-07-29T01:47:37;6.37;;;5.77;;
17207;SDS011;8720;48.488;9.202;2022-07-29T01:50:12;5.33;;;4.90;;
17207;SDS011;8720;48.488;9.202;2022-07-29T01:52:45;6.20;;;5.70;;
17207;SDS011;8720;48.488;9.202;2022-07-29T01:55:20;5.97;;;5.47;;
17207;SDS011;8720;48.488;9.202;2022-07-29T01:57:54;6.10;;;5.60;;
17207;SDS011;8720;48.488;9.202;2022-07-29T02:05:43;6.67;;;6.07;;
17207;SDS011;8720;48.488;9.202;2022-07-29T02:08:14;6.40;;;5.80;;
17207;SDS011;8720;48.488;9.202;2022-07-29T02:10:45;5.30;;;4.90;;
17207;SDS011;8720;48.488;9.202;2022-07-29T02:13:14;6.20;;;5.60;;
17207;SDS011;8720;48.488;9.202;2022-07-29T02:15:44;5.97;;;5.47;;
17207;SDS011;8720;48.488;9.202;2022-07-29T02:18:15;6.70;;;6.10;;
17207;SDS011;8720;48.488;9.202;2022-07-29T02:20:48;6.17;;;5.60;;
17207;SDS011;8720;48.488;9.202;2022-07-29T02:23:20;6.27;;;5.70;;
17207;SDS011;8720;48.488;9.202;2022-07-29T02:25:51;6.10;;;5.60;;
17207;SDS011;8720;48.488;9.202;2022-07-29T02:28:21;6.80;;;6.20;;
17207;SDS011;8720;48.488;9.202;2022-07-29T02:30:53;7.30;;;6.70;;
17207;SDS011;8720;48.488;9.202;2022-07-29T02:33:24;6.30;;;5.80;;
17207;SDS011;8720;48.488;9.202;2022-07-29T02:35:55;7.63;;;7.00;;
17207;SDS011;8720;48.488;9.202;2022-07-29T02:38:25;7.53;;;6.23;;
17207;SDS011;8720;48.488;9.202;2022-07-29T02:41:15;6.80;;;6.20;;
17207;SDS011;8720;48.488;9.202;2022-07-29T02:43:46;7.03;;;6.40;;
17207;SDS011;8720;48.488;9.202;2022-07-29T02:46:20;6.90;;;6.30;;
17207;SDS011;8720;48.488;9.202;2022-07-29T02:48:56;7.50;;;6.80;;
17207;SDS011;8720;48.488;9.202;2022-07-29T02:51:33;7.10;;;6.50;;
17207;SDS011;8720;48.488;9.202;2022-07-29T02:54:09;7.97;;;7.27;;
17207;SDS011;8720;48.488;9.202;2022-07-29T02:56:46;7.33;;;6.73;;
17207;SDS011;8720;48.488;9.202;2022-07-29T02:59:17;6.97;;;6.37;;
17207;SDS011;8720;48.488;9.202;2022-07-29T03:01:51;7.07;;;6.47;;
17207;SDS011;8720;48.488;9.202;2022-07-29T03:04:21;7.97;;;7.27;;
17207;SDS011;8720;48.488;9.202;2022-07-29T03:06:56;7.30;;;6.53;;
17207;SDS011;8720;48.488;9.202;2022-07-29T03:09:26;6.97;;;6.37;;
17207;SDS011;8720;48.488;9.202;2022-07-29T03:11:55;7.10;;;6.50;;
17207;SDS011;8720;48.488;9.202;2022-07-29T03:14:24;8.50;;;6.10;;
17207;SDS011;8720;48.488;9.202;2022-07-29T03:16:53;7.07;;;6.47;;
17207;SDS011;8720;48.488;9.202;2022-07-29T03:19:21;6.23;;;5.73;;
17207;SDS011;8720;48.488;9.202;2022-07-29T03:21:48;6.10;;;5.60;;
17207;SDS011;8720;48.488;9.202;2022-07-29T03:24:27;5.57;;;5.07;;
17207;SDS011;8720;48.488;9.202;2022-07-29T03:26:56;6.63;;;6.00;;
17207;SDS011;8720;48.488;9.202;2022-07-29T03:29:24;5.97;;;5.43;;
17207;SDS011;8720;48.488;9.202;2022-07-29T03:31:52;6.47;;;5.70;;
17207;SDS011;8720;48.488;9.202;2022-07-29T03:34:20;6.07;;;5.60;;
17207;SDS011;8720;48.488;9.202;2022-07-29T03:36:48;5.93;;;5.43;;
17207;SDS011;8720;48.488;9.202;2022-07-29T03:39:17;5.70;;;5.20;;
17207;SDS011;8720;48.488;9.202;2022-07-29T03:41:52;5.30;;;4.90;;
17207;SDS011;8720;48.488;9.202;2022-07-29T03:44:23;5.53;;;5.10;;
17207;SDS011;8720;48.488;9.202;2022-07-29T03:46:55;5.57;;;5.17;;
17207;SDS011;8720;48.488;9.202;2022-07-29T03:49:27;5.63;;;5.23;;
17207;SDS011;8720;48.488;9.202;2022-07-29T03:51:57;5.97;;;5.47;;
17207;SDS011;8720;48.488;9.202;2022-07-29T03:54:24;5.37;;;4.97;;
17207;SDS011;8720;48.488;9.202;2022-07-29T03:56:53;6.00;;;5.50;;
17207;SDS011;8720;48.488;9.202;2022-07-29T03:59:25;5.40;;;4.90;;
17207;SDS011;8720;48.488;9.202;2022-07-29T04:01:54;6.07;;;5.40;;
17207;SDS011;8720;48.488;9.202;2022-07-29T04:04:23;5.87;;;5.33;;
17207;SDS011;8720;48.488;9.202;2022-07-29T04:06:51;6.40;;;5.67;;
17207;SDS011;8720;48.488;9.202;2022-07-29T04:09:18;5.50;;;5.00;;
17207;SDS011;8720;48.488;9.202;2022-07-29T04:11:45;6.10;;;5.60;;
17207;SDS011;8720;48.488;9.202;2022-07-29T04:14:14;6.30;;;5.80;;
17207;SDS011;8720;48.488;9.202;2022-07-29T04:16:41;5.50;;;5.03;;
17207;SDS011;8720;48.488;9.202;2022-07-29T04:19:08;6.40;;;5.90;;
17207;SDS011;8720;48.488;9.202;2022-07-29T04:21:36;6.73;;;5.90;;
17207;SDS011;8720;48.488;9.202;2022-07-29T04:24:04;6.40;;;5.80;;
17207;SDS011;8720;48.488;9.202;2022-07-29T04:26:33;7.03;;;5.53;;
17207;SDS011;8720;48.488;9.202;2022-07-29T04:29:01;6.20;;;5.60;;
17207;SDS011;8720;48.488;9.202;2022-07-29T04:31:30;6.40;;;5.83;;
17207;SDS011;8720;48.488;9.202;2022-07-29T04:33:57;7.00;;;6.30;;
17207;SDS011;8720;48.488;9.202;2022-07-29T04:36:24;7.10;;;6.50;;
17207;SDS011;8720;48.488;9.202;2022-07-29T04:38:51;7.53;;;6.83;;
17207;SDS011;8720;48.488;9.202;2022-07-29T04:41:19;8.43;;;7.70;;
17207;SDS011;8720;48.488;9.202;2022-07-29T04:43:46;10.30;;;9.40;;
17207;SDS011;8720;48.488;9.202;2022-07-29T04:46:13;8.43;;;7.60;;
17207;SDS011;8720;48.488;9.202;2022-07-29T04:48:42;8.83;;;8.03;;
17207;SDS011;8720;48.488;9.202;2022-07-29T04:51:11;11.40;;;10.40;;
17207;SDS011;8720;48.488;9.202;2022-07-29T04:53:39;10.50;;;9.70;;
17207;SDS011;8720;48.488;9.202;2022-07-29T04:56:06;10.03;;;9.33;;
17207;SDS011;8720;48.488;9.202;2022-07-29T04:58:33;9.20;;;7.90;;
17207;SDS011;8720;48.488;9.202;2022-07-29T05:01:01;8.80;;;8.00;;
17207;SDS011;8720;48.488;9.202;2022-07-29T05:03:29;9.13;;;8.40;;
17207;SDS011;8720;48.488;9.202;2022-07-29T05:05:57;8.50;;;7.80;;
17207;SDS011;8720;48.488;9.202;2022-07-29T05:08:24;7.70;;;7.07;;
17207;SDS011;8720;48.488;9.202;2022-07-29T05:10:52;7.20;;;6.60;;
17207;SDS011;8720;48.488;9.202;2022-07-29T05:13:19;7.27;;;6.77;;
17207;SDS011;8720;48.488;9.202;2022-07-29T05:15:46;7.73;;;7.13;;
17207;SDS011;8720;48.488;9.202;2022-07-29T05:18:14;8.03;;;7.23;;
17207;SDS011;8720;48.488;9.202;2022-07-29T05:20:41;10.30;;;9.47;;
17207;SDS011;8720;48.488;9.202;2022-07-29T05:23:10;10.40;;;8.93;;
17207;SDS011;8720;48.488;9.202;2022-07-29T05:25:39;10.23;;;9.43;;
17207;SDS011;8720;48.488;9.202;2022-07-29T05:28:07;8.37;;;7.67;;
17207;SDS011;8720;48.488;9.202;2022-07-29T05:30:34;8.70;;;8.00;;
17207;SDS011;8720;48.488;9.202;2022-07-29T05:33:01;8.70;;;7.83;;
17207;SDS011;8720;48.488;9.202;2022-07-29T05:35:29;8.67;;;7.87;;
17207;SDS011;8720;48.488;9.202;2022-07-29T05:37:56;7.10;;;6.60;;
17207;SDS011;8720;48.488;9.202;2022-07-29T05:40:24;7.00;;;6.47;;
17207;SDS011;8720;48.488;9.202;2022-07-29T05:42:52;6.47;;;5.97;;
17207;SDS011;8720;48.488;9.202;2022-07-29T05:45:19;6.33;;;5.83;;
17207;SDS011;8720;48.488;9.202;2022-07-29T05:47:46;6.37;;;5.90;;
17207;SDS011;8720;48.488;9.202;2022-07-29T05:50:13;6.00;;;5.50;;
17207;SDS011;8720;48.488;9.202;2022-07-29T05:52:41;5.53;;;5.13;;
17207;SDS011;8720;48.488;9.202;2022-07-29T05:55:08;6.77;;;5.97;;
17207;SDS011;8720;48.488;9.202;2022-07-29T05:57:37;6.53;;;5.87;;
17207;SDS011;8720;48.488;9.202;2022-07-29T06:00:06;6.33;;;5.83;;
17207;SDS011;8720;48.488;9.202;2022-07-29T06:02:37;5.97;;;5.47;;
17207;SDS011;8720;48.488;9.202;2022-07-29T06:05:05;5.90;;;5.50;;
17207;SDS011;8720;48.488;9.202;2022-07-29T06:07:33;6.50;;;5.70;;
17207;SDS011;8720;48.488;9.202;2022-07-29T06:10:01;6.27;;;5.77;;
17207;SDS011;8720;48.488;9.202;2022-07-29T06:12:28;6.37;;;5.77;;
17207;SDS011;8720;48.488;9.202;2022-07-29T06:14:57;5.73;;;5.20;;
17207;SDS011;8720;48.488;9.202;2022-07-29T06:17:24;5.83;;;5.43;;
17207;SDS011;8720;48.488;9.202;2022-07-29T06:19:51;5.60;;;5.10;;
17207;SDS011;8720;48.488;9.202;2022-07-29T06:22:19;6.83;;;6.23;;
17207;SDS011;8720;48.488;9.202;2022-07-29T06:24:46;6.30;;;5.70;;
17207;SDS011;8720;48.488;9.202;2022-07-29T06:27:13;6.53;;;5.97;;
17207;SDS011;8720;48.488;9.202;2022-07-29T06:29:41;5.90;;;5.40;;
17207;SDS011;8720;48.488;9.202;2022-07-29T06:32:10;6.27;;;5.83;;
17207;SDS011;8720;48.488;9.202;2022-07-29T06:34:37;5.70;;;5.30;;
17207;SDS011;8720;48.488;9.202;2022-07-29T06:37:07;6.10;;;5.60;;
17207;SDS011;8720;48.488;9.202;2022-07-29T06:39:38;4.90;;;4.60;;
17207;SDS011;8720;48.488;9.202;2022-07-29T06:42:05;6.13;;;5.20;;
17207;SDS011;8720;48.488;9.202;2022-07-29T06:44:34;5.20;;;4.80;;
17207;SDS011;8720;48.488;9.202;2022-07-29T06:47:02;5.43;;;5.03;;
17207;SDS011;8720;48.488;9.202;2022-07-29T06:49:30;4.63;;;4.23;;
17207;SDS011;8720;48.488;9.202;2022-07-29T06:51:57;5.23;;;4.23;;
17207;SDS011;8720;48.488;9.202;2022-07-29T06:54:25;5.13;;;4.60;;
17207;SDS011;8720;48.488;9.202;2022-07-29T06:56:52;4.93;;;4.53;;
17207;SDS011;8720;48.488;9.202;2022-07-29T06:59:19;4.23;;;3.90;;
17207;SDS011;8720;48.488;9.202;2022-07-29T07:01:47;4.00;;;3.60;;
17207;SDS011;8720;48.488;9.202;2022-07-29T07:04:14;4.03;;;3.73;;
17207;SDS011;8720;48.488;9.202;2022-07-29T07:06:43;3.83;;;3.00;;
17207;SDS011;8720;48.488;9.202;2022-07-29T07:09:10;3.73;;;3.43;;
17207;SDS011;8720;48.488;9.202;2022-07-29T07:11:38;4.30;;;3.33;;
17207;SDS011;8720;48.488;9.202;2022-07-29T07:14:05;3.80;;;3.50;;
17207;SDS011;8720;48.488;9.202;2022-07-29T07:16:32;3.70;;;3.40;;
17207;SDS011;8720;48.488;9.202;2022-07-29T07:19:03;5.20;;;3.50;;
17207;SDS011;8720;48.488;9.202;2022-07-29T07:21:31;3.40;;;3.10;;
17207;SDS011;8720;48.488;9.202;2022-07-29T07:24:00;3.30;;;3.10;;
17207;SDS011;8720;48.488;9.202;2022-07-29T07:26:28;3.90;;;3.50;;
17207;SDS011;8720;48.488;9.202;2022-07-29T07:28:56;3.20;;;2.90;;
17207;SDS011;8720;48.488;9.202;2022-07-29T07:31:25;3.73;;;3.13;;
17207;SDS011;8720;48.488;9.202;2022-07-29T07:33:52;3.20;;;3.00;;
17207;SDS011;8720;48.488;9.202;2022-07-29T07:36:20;3.70;;;3.40;;
17207;SDS011;8720;48.488;9.202;2022-07-29T07:38:47;3.97;;;3.57;;
17207;SDS011;8720;48.488;9.202;2022-07-29T07:41:16;3.40;;;3.10;;
17207;SDS011;8720;48.488;9.202;2022-07-29T07:43:44;3.43;;;2.97;;
17207;SDS011;8720;48.488;9.202;2022-07-29T07:46:11;3.83;;;3.53;;
17207;SDS011;8720;48.488;9.202;2022-07-29T07:48:39;3.87;;;3.57;;
17207;SDS011;8720;48.488;9.202;2022-07-29T07:51:07;3.50;;;3.07;;
17207;SDS011;8720;48.488;9.202;2022-07-29T07:53:34;3.30;;;3.03;;
17207;SDS011;8720;48.488;9.202;2022-07-29T07:56:01;2.90;;;2.70;;
17207;SDS011;8720;48.488;9.202;2022-07-29T07:58:30;3.60;;;3.30;;
17207;SDS011;8720;48.488;9.202;2022-07-29T08:00:58;3.27;;;2.97;;
17207;SDS011;8720;48.488;9.202;2022-07-29T08:03:25;3.73;;;3.40;;
17207;SDS011;8720;48.488;9.202;2022-07-29T08:05:52;3.70;;;3.40;;
17207;SDS011;8720;48.488;9.202;2022-07-29T08:08:19;3.20;;;3.00;;
17207;SDS011;8720;48.488;9.202;2022-07-29T08:10:47;3.37;;;3.17;;
17207;SDS011;8720;48.488;9.202;2022-07-29T08:13:21;4.57;;;3.50;;
17207;SDS011;8720;48.488;9.202;2022-07-29T08:15:53;3.47;;;2.90;;
17207;SDS011;8720;48.488;9.202;2022-07-29T08:18:26;3.10;;;2.90;;
17207;SDS011;8720;48.488;9.202;2022-07-29T08:20:55;4.13;;;3.30;;
17207;SDS011;8720;48.488;9.202;2022-07-29T08:23:23;4.13;;;3.40;;
17207;SDS011;8720;48.488;9.202;2022-07-29T08:25:52;4.47;;;3.43;;
17207;SDS011;8720;48.488;9.202;2022-07-29T08:28:19;4.00;;;3.43;;
17207;SDS011;8720;48.488;9.202;2022-07-29T08:30:46;3.40;;;3.10;;
17207;SDS011;8720;48.488;9.202;2022-07-29T08:33:15;3.63;;;3.33;;
17207;SDS011;8720;48.488;9.202;2022-07-29T08:35:43;3.30;;;2.80;;
17207;SDS011;8720;48.488;9.202;2022-07-29T08:38:10;3.13;;;2.93;;
17207;SDS011;8720;48.488;9.202;2022-07-29T08:40:37;3.27;;;2.93;;
17207;SDS011;8720;48.488;9.202;2022-07-29T08:43:06;3.83;;;3.30;;
17207;SDS011;8720;48.488;9.202;2022-07-29T08:45:38;3.17;;;2.97;;
17207;SDS011;8720;48.488;9.202;2022-07-29T08:48:11;4.40;;;3.33;;
17207;SDS011;8720;48.488;9.202;2022-07-29T08:50:41;4.50;;;2.97;;
17207;SDS011;8720;48.488;9.202;2022-07-29T08:53:10;3.73;;;3.30;;
17207;SDS011;8720;48.488;9.202;2022-07-29T08:55:39;4.67;;;3.50;;
17207;SDS011;8720;48.488;9.202;2022-07-29T08:58:09;2.93;;;2.73;;
17207;SDS011;8720;48.488;9.202;2022-07-29T09:00:40;3.20;;;2.97;;
17207;SDS011;8720;48.488;9.202;2022-07-29T09:03:11;4.03;;;3.40;;
17207;SDS011;8720;48.488;9.202;2022-07-29T09:05:44;3.40;;;3.10;;
17207;SDS011;8720;48.488;9.202;2022-07-29T09:08:12;3.60;;;3.20;;
17207;SDS011;8720;48.488;9.202;2022-07-29T09:10:41;3.53;;;3.23;;
17207;SDS011;8720;48.488;9.202;2022-07-29T09:13:09;3.53;;;3.27;;
17207;SDS011;8720;48.488;9.202;2022-07-29T09:15:36;3.23;;;2.93;;
17207;SDS011;8720;48.488;9.202;2022-07-29T09:18:03;3.50;;;3.20;;
17207;SDS011;8720;48.488;9.202;2022-07-29T09:20:33;3.63;;;3.37;;
17207;SDS011;8720;48.488;9.202;2022-07-29T09:23:16;3.60;;;3.20;;
17207;SDS011;8720;48.488;9.202;2022-07-29T09:25:43;3.60;;;3.30;;
17207;SDS011;8720;48.488;9.202;2022-07-29T09:28:11;3.83;;;3.13;;
17207;SDS011;8720;48.488;9.202;2022-07-29T09:30:49;3.37;;;3.10;;
17207;SDS011;8720;48.488;9.202;2022-07-29T09:33:18;4.03;;;3.63;;
17207;SDS011;8720;48.488;9.202;2022-07-29T09:35:58;4.13;;;3.33;;
17207;SDS011;8720;48.488;9.202;2022-07-29T09:38:29;4.27;;;3.53;;
17207;SDS011;8720;48.488;9.202;2022-07-29T09:40:57;3.83;;;3.63;;
17207;SDS011;8720;48.488;9.202;2022-07-29T09:43:26;3.90;;;3.60;;
17207;SDS011;8720;48.488;9.202;2022-07-29T09:45:54;3.73;;;3.27;;
17207;SDS011;8720;48.488;9.202;2022-07-29T09:48:22;4.70;;;3.60;;
17207;SDS011;8720;48.488;9.202;2022-07-29T09:50:51;3.80;;;3.50;;
17207;SDS011;8720;48.488;9.202;2022-07-29T09:53:31;3.63;;;3.37;;
17207;SDS011;8720;48.488;9.202;2022-07-29T09:56:00;5.47;;;3.70;;
17207;SDS011;8720;48.488;9.202;2022-07-29T09:58:27;5.10;;;4.10;;
17207;SDS011;8720;48.488;9.202;2022-07-29T10:00:55;4.50;;;3.70;;
17207;SDS011;8720;48.488;9.202;2022-07-29T10:03:23;4.40;;;4.00;;
17207;SDS011;8720;48.488;9.202;2022-07-29T10:06:04;3.97;;;3.57;;
17207;SDS011;8720;48.488;9.202;2022-07-29T10:08:35;4.03;;;3.73;;
17207;SDS011;8720;48.488;9.202;2022-07-29T10:11:09;4.47;;;4.17;;
17207;SDS011;8720;48.488;9.202;2022-07-29T10:13:39;4.20;;;3.90;;
17207;SDS011;8720;48.488;9.202;2022-07-29T10:16:08;3.70;;;3.40;;
17207;SDS011;8720;48.488;9.202;2022-07-29T10:18:37;4.20;;;3.90;;
17207;SDS011;8720;48.488;9.202;2022-07-29T10:21:06;4.47;;;4.03;;
17207;SDS011;8720;48.488;9.202;2022-07-29T10:23:36;5.50;;;4.17;;
17207;SDS011;8720;48.488;9.202;2022-07-29T10:26:03;4.57;;;4.13;;
17207;SDS011;8720;48.488;9.202;2022-07-29T10:28:31;4.60;;;4.20;;
17207;SDS011;8720;48.488;9.202;2022-07-29T10:30:59;4.43;;;4.13;;
17207;SDS011;8720;48.488;9.202;2022-07-29T10:33:41;4.67;;;4.27;;
17207;SDS011;8720;48.488;9.202;2022-07-29T10:36:27;4.40;;;4.10;;
17207;SDS011;8720;48.488;9.202;2022-07-29T10:39:19;4.80;;;4.30;;
17207;SDS011;8720;48.488;9.202;2022-07-29T10:42:06;4.07;;;3.77;;
17207;SDS011;8720;48.488;9.202;2022-07-29T10:44:43;4.50;;;4.20;;
17207;SDS011;8720;48.488;9.202;2022-07-29T10:47:22;4.47;;;4.07;;
17207;SDS011;8720;48.488;9.202;2022-07-29T10:49:57;3.90;;;3.60;;
17207;SDS011;8720;48.488;9.202;2022-07-29T10:55:33;4.20;;;3.83;;
17207;SDS011;8720;48.488;9.202;2022-07-29T10:58:11;4.90;;;3.83;;
17207;SDS011;8720;48.488;9.202;2022-07-29T11:00:41;5.77;;;4.40;;
17207;SDS011;8720;48.488;9.202;2022-07-29T11:03:08;4.93;;;4.47;;
17207;SDS011;8720;48.488;9.202;2022-07-29T11:05:52;4.10;;;3.70;;
17207;SDS011;8720;48.488;9.202;2022-07-29T11:08:23;5.60;;;4.53;;
17207;SDS011;8720;48.488;9.202;2022-07-29T11:11:15;4.00;;;3.70;;
17207;SDS011;8720;48.488;9.202;2022-07-29T11:14:05;4.17;;;3.57;;
17207;SDS011;8720;48.488;9.202;2022-07-29T11:19:31;5.77;;;3.67;;
17207;SDS011;8720;48.488;9.202;2022-07-29T11:22:01;4.30;;;4.00;;
17207;SDS011;8720;48.488;9.202;2022-07-29T11:24:29;3.80;;;3.50;;
17207;SDS011;8720;48.488;9.202;2022-07-29T11:27:09;3.80;;;3.40;;
17207;SDS011;8720;48.488;9.202;2022-07-29T11:29:49;4.40;;;3.47;;
17207;SDS011;8720;48.488;9.202;2022-07-29T11:32:21;5.00;;;3.77;;
17207;SDS011;8720;48.488;9.202;2022-07-29T11:37:39;4.47;;;3.87;;
17207;SDS011;8720;48.488;9.202;2022-07-29T11:40:16;4.60;;;3.67;;
17207;SDS011;8720;48.488;9.202;2022-07-29T11:42:49;3.90;;;3.50;;
17207;SDS011;8720;48.488;9.202;2022-07-29T11:45:18;4.10;;;3.80;;
17207;SDS011;8720;48.488;9.202;2022-07-29T11:47:55;4.50;;;4.00;;
17207;SDS011;8720;48.488;9.202;2022-07-29T11:50:34;4.57;;;4.17;;
17207;SDS011;8720;48.488;9.202;2022-07-29T11:53:03;4.47;;;4.07;;
17207;SDS011;8720;48.488;9.202;2022-07-29T11:55:39;4.43;;;4.13;;
17207;SDS011;8720;48.488;9.202;2022-07-29T11:58:08;3.90;;;3.60;;
17207;SDS011;8720;48.488;9.202;2022-07-29T12:00:36;4.20;;;3.90;;
17207;SDS011;8720;48.488;9.202;2022-07-29T12:03:07;4.57;;;4.27;;
17207;SDS011;8720;48.488;9.202;2022-07-29T12:05:37;4.53;;;4.23;;
17207;SDS011;8720;48.488;9.202;2022-07-29T12:08:08;4.80;;;4.40;;
17207;SDS011;8720;48.488;9.202;2022-07-29T12:10:39;5.40;;;3.93;;
17207;SDS011;8720;48.488;9.202;2022-07-29T12:13:09;4.80;;;4.40;;
17207;SDS011;8720;48.488;9.202;2022-07-29T12:15:37;4.90;;;4.50;;
17207;SDS011;8720;48.488;9.202;2022-07-29T12:18:12;5.20;;;4.60;;
17207;SDS011;8720;48.488;9.202;2022-07-29T12:20:42;5.73;;;5.17;;
17207;SDS011;8720;48.488;9.202;2022-07-29T12:23:11;5.30;;;4.43;;
17207;SDS011;8720;48.488;9.202;2022-07-29T12:25:41;5.27;;;4.80;;
17207;SDS011;8720;48.488;9.202;2022-07-29T12:28:12;6.43;;;5.10;;
17207;SDS011;8720;48.488;9.202;2022-07-29T12:30:44;5.43;;;4.80;;
17207;SDS011;8720;48.488;9.202;2022-07-29T12:33:15;6.20;;;4.40;;
17207;SDS011;8720;48.488;9.202;2022-07-29T12:35:47;4.47;;;4.17;;
17207;SDS011;8720;48.488;9.202;2022-07-29T12:38:18;4.70;;;4.30;;
17207;SDS011;8720;48.488;9.202;2022-07-29T12:40:47;6.20;;;4.67;;
17207;SDS011;8720;48.488;9.202;2022-07-29T12:43:17;5.63;;;5.03;;
17207;SDS011;8720;48.488;9.202;2022-07-29T12:45:47;5.40;;;4.77;;
17207;SDS011;8720;48.488;9.202;2022-07-29T12:48:16;6.17;;;5.00;;
17207;SDS011;8720;48.488;9.202;2022-07-29T12:50:58;6.17;;;5.60;;
17207;SDS011;8720;48.488;9.202;2022-07-29T12:53:28;6.70;;;6.10;;
17207;SDS011;8720;48.488;9.202;2022-07-29T12:55:56;6.87;;;6.27;;
17207;SDS011;8720;48.488;9.202;2022-07-29T12:58:32;6.90;;;6.20;;
17207;SDS011;8720;48.488;9.202;2022-07-29T13:01:02;7.63;;;6.17;;
17207;SDS011;8720;48.488;9.202;2022-07-29T13:03:46;7.10;;;6.50;;
17207;SDS011;8720;48.488;9.202;2022-07-29T13:09:08;6.40;;;5.80;;
17207;SDS011;8720;48.488;9.202;2022-07-29T13:11:39;6.10;;;5.60;;
17207;SDS011;8720;48.488;9.202;2022-07-29T13:14:11;6.10;;;5.60;;
17207;SDS011;8720;48.488;9.202;2022-07-29T13:19:33;6.50;;;6.00;;
17207;SDS011;8720;48.488;9.202;2022-07-29T13:22:05;5.97;;;5.43;;
17207;SDS011;8720;48.488;9.202;2022-07-29T13:24:33;6.10;;;5.50;;
17207;SDS011;8720;48.488;9.202;2022-07-29T13:27:13;5.43;;;4.93;;
17207;SDS011;8720;48.488;9.202;2022-07-29T13:29:42;5.83;;;5.40;;
17207;SDS011;8720;48.488;9.202;2022-07-29T13:32:10;6.23;;;5.23;;
17207;SDS011;8720;48.488;9.202;2022-07-29T13:34:38;5.40;;;5.00;;
17207;SDS011;8720;48.488;9.202;2022-07-29T13:37:05;6.33;;;5.47;;
17207;SDS011;8720;48.488;9.202;2022-07-29T13:39:33;6.03;;;5.53;;
17207;SDS011;8720;48.488;9.202;2022-07-29T13:42:00;5.20;;;4.80;;
17207;SDS011;8720;48.488;9.202;2022-07-29T13:44:27;5.40;;;5.00;;
17207;SDS011;8720;48.488;9.202;2022-07-29T13:46:56;5.57;;;5.07;;
17207;SDS011;8720;48.488;9.202;2022-07-29T13:49:24;4.80;;;4.40;;
17207;SDS011;8720;48.488;9.202;2022-07-29T13:51:52;5.20;;;4.70;;
17207;SDS011;8720;48.488;9.202;2022-07-29T13:54:20;4.40;;;4.10;;
17207;SDS011;8720;48.488;9.202;2022-07-29T13:56:47;4.83;;;4.40;;
17207;SDS011;8720;48.488;9.202;2022-07-29T13:59:16;4.17;;;3.87;;
17207;SDS011;8720;48.488;9.202;2022-07-29T14:01:43;4.77;;;4.30;;
17207;SDS011;8720;48.488;9.202;2022-07-29T14:04:12;4.80;;;4.40;;
17207;SDS011;8720;48.488;9.202;2022-07-29T14:06:39;4.40;;;4.10;;
17207;SDS011;8720;48.488;9.202;2022-07-29T14:09:06;4.47;;;4.07;;
17207;SDS011;8720;48.488;9.202;2022-07-29T14:11:34;4.53;;;4.23;;
17207;SDS011;8720;48.488;9.202;2022-07-29T14:14:03;4.40;;;4.00;;
17207;SDS011;8720;48.488;9.202;2022-07-29T14:16:30;4.17;;;3.87;;
17207;SDS011;8720;48.488;9.202;2022-07-29T14:18:58;4.40;;;4.10;;
17207;SDS011;8720;48.488;9.202;2022-07-29T14:21:27;4.10;;;3.80;;
17207;SDS011;8720;48.488;9.202;2022-07-29T14:23:55;4.57;;;4.20;;
17207;SDS011;8720;48.488;9.202;2022-07-29T14:26:22;3.87;;;3.63;;
17207;SDS011;8720;48.488;9.202;2022-07-29T14:28:50;4.10;;;3.80;;
17207;SDS011;8720;48.488;9.202;2022-07-29T14:31:17;4.60;;;4.30;;
17207;SDS011;8720;48.488;9.202;2022-07-29T14:33:44;4.20;;;3.80;;
17207;SDS011;8720;48.488;9.202;2022-07-29T14:36:12;4.20;;;3.90;;
17207;SDS011;8720;48.488;9.202;2022-07-29T14:38:41;4.03;;;3.73;;
17207;SDS011;8720;48.488;9.202;2022-07-29T14:41:08;4.37;;;4.07;;
17207;SDS011;8720;48.488;9.202;2022-07-29T14:43:36;4.40;;;4.00;;
17207;SDS011;8720;48.488;9.202;2022-07-29T14:46:03;4.53;;;4.23;;
17207;SDS011;8720;48.488;9.202;2022-07-29T14:48:32;3.70;;;3.47;;
17207;SDS011;8720;48.488;9.202;2022-07-29T14:51:00;4.20;;;3.90;;
17207;SDS011;8720;48.488;9.202;2022-07-29T14:53:27;4.30;;;4.00;;
17207;SDS011;8720;48.488;9.202;2022-07-29T14:55:55;4.37;;;4.07;;
17207;SDS011;8720;48.488;9.202;2022-07-29T14:58:23;4.20;;;3.90;;
17207;SDS011;8720;48.488;9.202;2022-07-29T15:00:50;4.47;;;4.17;;
17207;SDS011;8720;48.488;9.202;2022-07-29T15:03:17;4.70;;;4.33;;
17207;SDS011;8720;48.488;9.202;2022-07-29T15:05:45;4.00;;;3.60;;
17207;SDS011;8720;48.488;9.202;2022-07-29T15:08:12;4.13;;;3.83;;
17207;SDS011;8720;48.488;9.202;2022-07-29T15:10:39;4.63;;;4.13;;
17207;SDS011;8720;48.488;9.202;2022-07-29T15:13:08;4.60;;;4.20;;
17207;SDS011;8720;48.488;9.202;2022-07-29T15:15:35;4.70;;;4.30;;
17207;SDS011;8720;48.488;9.202;2022-07-29T15:18:02;4.90;;;4.17;;
17207;SDS011;8720;48.488;9.202;2022-07-29T15:20:30;4.60;;;4.20;;
17207;SDS011;8720;48.488;9.202;2022-07-29T15:22:57;4.33;;;4.03;;
17207;SDS011;8720;48.488;9.202;2022-07-29T15:25:25;4.37;;;3.97;;
17207;SDS011;8720;48.488;9.202;2022-07-29T15:27:52;4.67;;;4.17;;
17207;SDS011;8720;48.488;9.202;2022-07-29T15:30:21;4.50;;;4.10;;
17207;SDS011;8720;48.488;9.202;2022-07-29T15:32:48;5.00;;;4.60;;
17207;SDS011;8720;48.488;9.202;2022-07-29T15:35:16;5.63;;;4.67;;
17207;SDS011;8720;48.488;9.202;2022-07-29T15:37:43;4.70;;;4.30;;